Acton, Montana
Current Conditions -  °F | °C
As of 12:53 PM on Wednesday 28 Jan 2015 (Local Time) from KBIL Reporting Station
Few Clouds Few Clouds  
Wind Chill: 12°   Ceiling: Unl
Heat Index: 12°   Visibility: 10mi
Dew Point: -4°   Wind: 17mph
Humidity: 31%   Direction: 340°NNW
Pressure: 30.16"   Gusts: NA
Location:  45.93°N, 108.69°W
Report Text: KBIL 281953Z 34015KT 10SM FEW065 FEW100 12/M04 A3016 RMK AO2 PK WND 33029/1855 SLP208 ACSL DSNT SE-W T01221044
Loading
Personal Weather Stations






























Interactive Weather Map New forecast layout! Learn more

10-Day Weather Forecast

Advertisements
Track Severe Weather on mobile